»·PEaware :: N9273T KBFL-KCMA

N9273T :: KBFL-KCMA

FLIGHT INFORMATION

Flight Status: Arrived
Operator: Privately registered:
United States
More flights under this callsign
Pilot: Jim L. (28297)
Aircraft: CESSNA 210 CENTURION
(C210)
More flights by this aircraft type
Origin: KBFL Meadows
United States
Destination: KCMA Camarillo
United States
More flights between these airports :: More routes between these airports
Route: +MEADO4 GMN V23 TWINE COOGA
File this flight plan on PilotEdge
Remarks: Alphabet Challenge ZLA
Altitude:
(Current/Filed)
11,000ft
Speed:
(Current/Filed)
140kts
Departed: 13-Jul-20 05:46 PM
Arrived: 13-Jul-20 06:32 PM
Distance/Time
Traveled:
73nm/0:45
Distance/Time
To Go:
Arrived

Flight Plot

Page will automatically refresh every two minutes.

Flight plan parsing failed; only flown route is shown


Map Options




Map Legend


Flown Route
Filed Route
Departure Airport
Arrival Airport
Navaid (VOR, NDB)
Fix

Horizontal Profiles

Position Reports

Time Latitude Longitude Heading Altitude Ground
Speed
13-Jul-20 17:33 35.429660 -119.046617 136 509ft 0kts
13-Jul-20 17:34 35.429660 -119.046617 136 509ft 0kts
13-Jul-20 17:35 35.429660 -119.046617 136 509ft 0kts
13-Jul-20 17:36 35.429411 -119.046327 129 509ft 0kts
13-Jul-20 17:37 35.429410 -119.046327 129 509ft 0kts
13-Jul-20 17:38 35.429410 -119.046327 129 509ft 0kts
13-Jul-20 17:39 35.429410 -119.046327 129 509ft 0kts
13-Jul-20 17:40 35.429410 -119.046327 129 509ft 0kts
13-Jul-20 17:41 35.429410 -119.046327 129 509ft 0kts
13-Jul-20 17:42 35.428599 -119.047040 219 509ft 8kts
13-Jul-20 17:43 35.426075 -119.044625 204 509ft 0kts
13-Jul-20 17:44 35.425690 -119.046320 314 509ft 30kts
13-Jul-20 17:45 35.441435 -119.064714 315 1224ft 80kts
13-Jul-20 17:46 35.456944 -119.084018 314 2141ft 84kts
13-Jul-20 17:47 35.474086 -119.106627 314 3008ft 107kts
13-Jul-20 17:48 35.497676 -119.137683 314 3430ft 123kts
13-Jul-20 17:49 35.519836 -119.167128 314 4380ft 112kts
13-Jul-20 17:50 35.539993 -119.194898 314 5359ft 107kts
13-Jul-20 17:51 35.559319 -119.222337 301 6343ft 107kts
13-Jul-20 17:52 35.540547 -119.244594 192 7352ft 115kts
13-Jul-20 17:53 35.509188 -119.251998 191 8354ft 114kts
13-Jul-20 17:54 35.478039 -119.260039 192 9317ft 118kts
13-Jul-20 17:55 35.445157 -119.269007 192 10233ft 124kts
13-Jul-20 17:56 35.410668 -119.277353 169 10999ft 137kts
13-Jul-20 17:57 35.372581 -119.250886 149 11001ft 168kts
13-Jul-20 17:58 35.332496 -119.222800 150 10999ft 164kts
13-Jul-20 17:59 35.292766 -119.195405 150 11000ft 165kts
13-Jul-20 18:00 35.252425 -119.167629 150 11000ft 167kts
13-Jul-20 18:01 35.211880 -119.139756 150 11000ft 166kts
13-Jul-20 18:02 35.171635 -119.112117 150 11000ft 166kts
13-Jul-20 18:03 35.131156 -119.084350 150 11000ft 166kts
13-Jul-20 18:04 35.090697 -119.056629 150 11000ft 166kts
13-Jul-20 18:05 35.050378 -119.029035 150 11000ft 166kts
13-Jul-20 18:06 35.009942 -119.001394 150 11000ft 166kts
13-Jul-20 18:07 34.969788 -118.973983 150 10999ft 165kts
13-Jul-20 18:08 34.929877 -118.946749 150 11000ft 164kts
13-Jul-20 18:09 34.890219 -118.919620 150 10999ft 163kts
13-Jul-20 18:10 34.850371 -118.892486 150 10999ft 163kts
13-Jul-20 18:11 34.810686 -118.865510 150 10999ft 163kts
13-Jul-20 18:12 34.768823 -118.843472 157 10999ft 164kts
13-Jul-20 18:13 34.726628 -118.822460 157 10999ft 163kts
13-Jul-20 18:14 34.684546 -118.801530 157 10999ft 163kts
13-Jul-20 18:15 34.642256 -118.780602 157 10999ft 163kts
13-Jul-20 18:16 34.600141 -118.759751 157 10999ft 164kts
13-Jul-20 18:18 34.557315 -118.742146 179 11001ft 164kts
13-Jul-20 18:19 34.510007 -118.744087 182 10274ft 172kts
13-Jul-20 18:20 34.462138 -118.746154 181 9471ft 172kts
13-Jul-20 18:21 34.414520 -118.747722 181 8672ft 172kts
13-Jul-20 18:22 34.366622 -118.749525 182 7871ft 172kts
13-Jul-20 18:23 34.319053 -118.753760 203 7069ft 171kts
13-Jul-20 18:24 34.278302 -118.782811 214 6276ft 170kts
13-Jul-20 18:25 34.238429 -118.813578 214 5480ft 170kts
13-Jul-20 18:26 34.221918 -118.857444 261 4885ft 149kts
13-Jul-20 18:27 34.216344 -118.905569 261 4450ft 150kts
13-Jul-20 18:28 34.212108 -118.960668 270 3042ft 168kts
13-Jul-20 18:29 34.213253 -119.017479 273 1304ft 173kts
13-Jul-20 18:30 34.213387 -119.060078 278 513ft 78kts
13-Jul-20 18:31 34.213650 -119.085296 274 108ft 61kts
13-Jul-20 18:32 34.212730 -119.090875 192 81ft 0kts
13-Jul-20 18:33 34.210970 -119.089157 93 81ft 9kts
13-Jul-20 18:34 34.210943 -119.084898 88 81ft 14kts
13-Jul-20 18:35 34.210889 -119.079538 92 81ft 16kts
13-Jul-20 18:35 34.210574 -119.078408 88 81ft 0kts
13-Jul-20 18:37 34.210574 -119.078408 88 81ft 0kts

Navigation Log

Ident Type
Flight plan parsing failed, navigation log unavailable